Time;durP1;ratioP1;P1;durP2;ratioP2;P2;SDS_P1;SDS_P2;PMS_P1;PMS_P2;Temp;Humidity;BMP_temperature;BMP_pressure;BME280_temperature;BME280_humidity;BME280_pressure;Samples;Min_cycle;Max_cycle;Signal;HPM_P1;HPM_P2
2023/05/07 00:02:04;;;;;;;;;22.20;20.20;;;;;16.93;59.88;98854.13;5973484;29;96363;-61
2023/05/07 00:05:08;;;;;;;;;20.60;18.60;;;;;16.93;59.89;98857.66;5975105;29;96448;-61
2023/05/07 00:08:12;;;;;;;;;20.60;20.00;;;;;16.99;59.91;98856.63;5974215;29;96364;-61
2023/05/07 00:11:15;;;;;;;;;21.00;19.00;;;;;17.01;59.88;98857.16;5974608;29;96277;-61
2023/05/07 00:14:19;;;;;;;;;25.00;23.00;;;;;17.02;59.80;98861.53;5974710;29;96292;-62
2023/05/07 00:17:23;;;;;;;;;22.25;21.25;;;;;17.07;59.71;98858.81;5972985;29;98629;-62
2023/05/07 00:20:27;;;;;;;;;21.50;19.00;;;;;17.12;59.85;98855.31;5974444;29;96881;-62
2023/05/07 00:23:30;;;;;;;;;23.60;19.60;;;;;17.16;59.56;98862.69;5975026;29;96352;-62
2023/05/07 00:26:34;;;;;;;;;24.00;22.50;;;;;17.11;59.63;98861.84;5974714;29;96839;-61
2023/05/07 00:29:37;;;;;;;;;22.20;20.20;;;;;17.18;59.68;98868.69;5988357;29;97105;-61
2023/05/07 00:32:42;;;;;;;;;21.00;20.00;;;;;17.20;59.57;98866.50;5974731;29;96282;-61
2023/05/07 00:35:45;;;;;;;;;23.00;22.33;;;;;17.21;59.68;98870.88;5974248;29;96396;-62
2023/05/07 00:38:48;;;;;;;;;22.40;19.40;;;;;17.20;59.29;98863.78;5988540;29;96503;-61
2023/05/07 00:41:52;;;;;;;;;22.80;21.00;;;;;17.15;59.51;98863.75;5989522;29;96633;-61
2023/05/07 00:44:55;;;;;;;;;24.40;23.00;;;;;17.21;59.46;98878.22;5972815;29;96299;-61
2023/05/07 00:48:02;;;;;;;;;22.40;19.40;;;;;17.21;59.36;98872.78;5974142;29;97549;-61
2023/05/07 00:51:05;;;;;;;;;21.00;20.00;;;;;17.17;59.71;98877.94;5989427;29;97566;-61
2023/05/07 00:54:09;;;;;;;;;19.60;17.20;;;;;17.16;59.35;98875.47;5989209;29;96312;-61
2023/05/07 00:57:12;;;;;;;;;21.60;20.60;;;;;17.13;59.59;98879.56;5973394;29;96328;-61
2023/05/07 01:00:16;;;;;;;;;20.00;17.40;;;;;17.08;59.36;98878.72;5973344;29;97567;-61
2023/05/07 01:03:21;;;;;;;;;24.60;21.20;;;;;17.03;59.08;98879.50;5974596;29;96872;-61
2023/05/07 01:06:27;;;;;;;;;17.00;16.00;;;;;17.01;59.21;98886.28;5972804;29;96708;-61
2023/05/07 01:09:31;;;;;;;;;19.60;17.00;;;;;16.83;59.16;98860.31;5973129;29;96777;-62
2023/05/07 01:12:36;;;;;;;;;18.00;16.75;;;;;16.92;58.99;98885.16;5974519;29;96597;-61
2023/05/07 01:15:40;;;;;;;;;16.20;16.00;;;;;16.89;59.18;98890.06;5972980;29;97003;-61
2023/05/07 01:18:47;;;;;;;;;20.60;19.00;;;;;16.88;59.07;98893.03;5974086;29;96283;-61
2023/05/07 01:21:53;;;;;;;;;18.00;18.00;;;;;16.85;59.15;98882.69;5973608;29;96250;-61
2023/05/07 01:25:01;;;;;;;;;19.25;17.25;;;;;16.81;59.12;98876.13;5989035;29;96377;-62
2023/05/07 01:28:06;;;;;;;;;18.00;17.25;;;;;16.81;59.09;98887.81;5972945;29;96661;-61
2023/05/07 01:31:14;;;;;;;;;17.80;16.80;;;;;16.78;59.31;98890.22;5977291;29;96418;-62
2023/05/07 01:34:20;;;;;;;;;18.50;16.50;;;;;16.74;58.80;98889.94;5992434;29;96959;-62
2023/05/07 01:37:25;;;;;;;;;21.00;18.60;;;;;16.71;58.86;98886.94;6008516;29;96396;-62
2023/05/07 01:40:30;;;;;;;;;21.00;20.00;;;;;16.73;58.75;98892.91;5993397;29;96339;-62
2023/05/07 01:43:34;;;;;;;;;17.20;15.20;;;;;16.73;58.82;98895.66;6008014;29;96885;-62
2023/05/07 01:46:38;;;;;;;;;19.00;17.00;;;;;16.69;59.34;98898.06;5977247;29;97788;-63
2023/05/07 01:49:42;;;;;;;;;16.00;16.00;;;;;16.66;59.53;98893.16;5976986;29;98461;-62
2023/05/07 01:52:46;;;;;;;;;20.25;19.25;;;;;16.65;59.76;98896.97;5993098;29;96998;-62
2023/05/07 01:55:50;;;;;;;;;18.60;17.00;;;;;16.61;59.25;98901.28;5993129;29;96582;-62
2023/05/07 01:58:56;;;;;;;;;21.00;19.00;;;;;16.56;59.32;98893.06;6008654;29;96375;-62
2023/05/07 02:02:00;;;;;;;;;16.80;15.80;;;;;16.52;59.16;98902.78;6007096;29;96271;-62
2023/05/07 02:05:05;;;;;;;;;21.00;19.40;;;;;16.42;58.93;98900.81;5993362;29;96332;-62
2023/05/07 02:08:08;;;;;;;;;20.00;18.00;;;;;16.42;58.99;98898.09;5994835;29;96869;-62
2023/05/07 02:11:13;;;;;;;;;20.25;19.25;;;;;16.34;59.14;98895.84;5993325;29;96699;-62
2023/05/07 02:14:16;;;;;;;;;22.33;19.33;;;;;16.33;59.17;98909.69;5993579;29;96475;-61
2023/05/07 02:17:19;;;;;;;;;22.00;19.00;;;;;16.27;59.36;98903.38;5990789;29;98321;-61
2023/05/07 02:20:23;;;;;;;;;24.00;21.00;;;;;16.21;58.94;98912.59;5993225;29;96322;-62
2023/05/07 02:23:26;;;;;;;;;23.00;21.20;;;;;16.12;59.03;98900.56;5993716;29;97491;-62
2023/05/07 02:26:31;;;;;;;;;21.60;20.00;;;;;16.04;59.16;98907.25;5977313;29;99173;-63
2023/05/07 02:29:35;;;;;;;;;19.00;16.80;;;;;15.99;59.38;98915.38;5993970;29;96306;-62
2023/05/07 02:32:38;;;;;;;;;20.75;19.00;;;;;15.95;59.16;98921.56;5994229;29;96281;-62
2023/05/07 02:35:41;;;;;;;;;22.00;19.00;;;;;15.90;59.16;98924.22;5992914;29;96711;-62
2023/05/07 02:38:46;;;;;;;;;18.00;15.67;;;;;15.86;59.14;98914.94;5993449;29;96400;-62
2023/05/07 02:41:53;;;;;;;;;18.75;16.00;;;;;15.84;59.26;98917.91;5996570;29;96071;-61
2023/05/07 02:44:56;;;;;;;;;15.00;15.00;;;;;15.81;59.36;98914.88;5972256;29;96535;-62
2023/05/07 02:48:00;;;;;;;;;16.80;15.80;;;;;15.76;58.99;98920.28;5971184;29;96385;-62
2023/05/07 02:51:05;;;;;;;;;14.00;13.80;;;;;15.71;59.10;98923.75;5955154;29;96683;-62
2023/05/07 02:54:10;;;;;;;;;16.67;15.00;;;;;15.70;59.23;98924.00;5953913;29;98443;-61
2023/05/07 02:57:15;;;;;;;;;13.20;12.00;;;;;15.68;59.01;98929.72;5985386;29;96392;-62
2023/05/07 03:00:20;;;;;;;;;15.20;14.00;;;;;15.66;58.90;98925.59;5969053;29;96395;-62
2023/05/07 03:03:36;;;;;;;;;16.40;15.40;;;;;15.66;58.88;98926.41;5991524;29;96185;-61
2023/05/07 03:06:40;;;;;;;;;15.00;14.00;;;;;15.67;58.68;98929.94;5982234;29;96819;-62
2023/05/07 03:09:43;;;;;;;;;17.00;15.00;;;;;15.62;58.36;98936.16;5967992;29;96274;-61
2023/05/07 03:12:48;;;;;;;;;15.00;13.60;;;;;15.63;58.31;98943.22;5967195;29;96861;-62
2023/05/07 03:15:53;;;;;;;;;14.00;13.40;;;;;15.62;58.39;98944.31;5984466;29;96239;-62
2023/05/07 03:18:56;;;;;;;;;14.00;12.00;;;;;15.57;58.30;98941.50;5990315;29;96309;-61
2023/05/07 03:22:00;;;;;;;;;12.00;12.00;;;;;15.52;58.40;98945.00;6006589;29;96302;-63
2023/05/07 03:25:04;;;;;;;;;13.40;12.00;;;;;15.54;58.76;98948.25;5991518;29;97151;-62
2023/05/07 03:28:08;;;;;;;;;12.00;12.00;;;;;15.54;58.56;98950.19;5982631;29;98500;-62
2023/05/07 03:31:17;;;;;;;;;14.00;13.60;;;;;15.52;58.89;98950.44;5976284;29;96735;-62
2023/05/07 03:34:21;;;;;;;;;13.40;12.60;;;;;15.56;58.68;98958.88;6006706;29;96365;-62
2023/05/07 03:37:25;;;;;;;;;10.00;10.00;;;;;15.55;58.53;98958.06;5990557;29;96377;-62
2023/05/07 03:40:29;;;;;;;;;11.50;11.50;;;;;15.51;58.43;98959.66;6006508;29;96433;-62
2023/05/07 03:43:34;;;;;;;;;9.20;9.00;;;;;15.53;58.53;98968.38;5994243;29;96262;-61
2023/05/07 03:46:42;;;;;;;;;10.40;9.40;;;;;15.50;58.60;98974.25;6006520;29;97542;-62
2023/05/07 03:49:47;;;;;;;;;12.00;11.00;;;;;15.47;58.20;98982.09;5992863;29;96361;-62
2023/05/07 03:52:51;;;;;;;;;8.80;8.80;;;;;15.44;58.58;98977.97;5992799;29;96884;-62
2023/05/07 03:55:57;;;;;;;;;9.00;8.60;;;;;15.35;58.54;98968.63;6009384;29;96286;-62
2023/05/07 03:59:02;;;;;;;;;8.00;7.00;;;;;15.35;58.34;98979.50;6008913;29;96527;-62
2023/05/07 04:02:06;;;;;;;;;7.60;7.60;;;;;15.29;58.44;98979.69;5980186;29;96750;-64
2023/05/07 04:05:10;;;;;;;;;6.00;6.00;;;;;15.27;58.14;99001.66;5984096;29;97316;-63
2023/05/07 04:08:15;;;;;;;;;9.00;9.00;;;;;15.29;57.86;98990.56;5966742;29;97032;-63
2023/05/07 04:11:23;;;;;;;;;8.00;7.00;;;;;15.27;57.67;98993.50;5967496;29;96616;-63
2023/05/07 04:14:27;;;;;;;;;9.40;9.00;;;;;15.25;57.46;98997.56;5990674;29;96489;-63
2023/05/07 04:17:31;;;;;;;;;5.00;5.00;;;;;15.16;57.46;98995.25;5974812;29;96582;-63
2023/05/07 04:20:36;;;;;;;;;4.75;4.75;;;;;15.20;57.61;99003.72;5973922;29;96416;-63
2023/05/07 04:23:42;;;;;;;;;6.00;5.40;;;;;15.18;57.36;98995.84;5958247;29;96807;-63
2023/05/07 04:26:47;;;;;;;;;5.00;5.00;;;;;15.18;57.67;99008.59;5966115;29;96938;-63
2023/05/07 04:29:55;;;;;;;;;4.00;4.00;;;;;15.17;57.16;99007.75;5972779;29;97268;-63
2023/05/07 04:32:59;;;;;;;;;3.80;3.00;;;;;15.13;57.22;99011.22;5973212;29;97228;-63
2023/05/07 04:36:05;;;;;;;;;6.25;6.00;;;;;15.07;57.61;99012.19;5984603;29;96306;-64
2023/05/07 04:39:14;;;;;;;;;6.00;5.60;;;;;15.06;57.19;99019.53;5973550;29;96800;-64
2023/05/07 04:42:21;;;;;;;;;5.00;4.60;;;;;15.04;57.01;99024.41;5987600;29;96513;-63
2023/05/07 04:45:25;;;;;;;;;4.00;3.00;;;;;15.01;57.17;99032.19;5980554;29;96473;-63
2023/05/07 04:48:30;;;;;;;;;5.00;4.40;;;;;15.00;57.16;99047.66;5966192;29;97247;-63
2023/05/07 04:51:35;;;;;;;;;6.00;5.00;;;;;15.00;57.51;99034.06;5972877;29;96562;-63
2023/05/07 04:54:38;;;;;;;;;4.75;4.75;;;;;15.00;57.64;99036.78;5973364;29;97152;-63
2023/05/07 04:57:43;;;;;;;;;6.00;5.50;;;;;15.00;57.57;99042.22;5988937;29;96592;-63
2023/05/07 05:00:50;;;;;;;;;4.00;4.00;;;;;14.97;57.78;99050.03;5989029;29;96591;-63
2023/05/07 05:03:53;;;;;;;;;6.40;6.40;;;;;14.99;57.49;99056.06;5971705;29;97151;-63
2023/05/07 05:06:57;;;;;;;;;6.00;6.00;;;;;14.97;57.70;99053.59;5957354;29;96460;-63
2023/05/07 05:10:02;;;;;;;;;4.80;4.20;;;;;14.93;57.84;99057.03;5987951;29;96921;-63
2023/05/07 05:13:09;;;;;;;;;6.00;5.20;;;;;14.89;58.16;99066.75;5980467;29;96481;-63
2023/05/07 05:16:13;;;;;;;;;5.40;5.00;;;;;14.88;58.27;99065.09;5970907;29;98659;-64
2023/05/07 05:19:17;;;;;;;;;3.80;3.00;;;;;14.79;58.15;99067.41;5987819;29;96774;-63
2023/05/07 05:22:21;;;;;;;;;6.00;6.00;;;;;14.78;58.20;99073.88;5972240;29;97080;-63
2023/05/07 05:25:24;;;;;;;;;5.00;4.00;;;;;14.74;58.19;99070.84;5973752;29;96753;-63
2023/05/07 05:28:28;;;;;;;;;5.00;4.00;;;;;14.74;58.25;99078.16;5972962;29;96726;-63
2023/05/07 05:31:33;;;;;;;;;5.60;5.00;;;;;14.65;57.95;99077.75;5987554;29;97549;-63
2023/05/07 05:34:37;;;;;;;;;5.00;4.00;;;;;14.66;58.53;99087.50;5974634;29;96852;-63
2023/05/07 05:37:41;;;;;;;;;3.00;3.00;;;;;14.67;58.73;99089.16;5988749;29;96847;-63
2023/05/07 05:40:45;;;;;;;;;5.40;5.00;;;;;14.71;58.70;99084.06;5972597;29;98754;-63
2023/05/07 05:43:49;;;;;;;;;5.60;5.00;;;;;14.73;58.66;99085.47;5988935;29;96270;-63
2023/05/07 05:46:57;;;;;;;;;5.00;5.00;;;;;14.76;58.52;99096.94;5988754;29;96297;-63
2023/05/07 05:50:00;;;;;;;;;4.00;4.00;;;;;14.81;58.21;99100.53;5989125;29;96812;-63
2023/05/07 05:53:04;;;;;;;;;2.40;2.40;;;;;14.78;57.68;99116.47;5972191;29;96956;-63
2023/05/07 05:56:08;;;;;;;;;3.00;3.00;;;;;14.76;58.05;99111.28;5972559;29;96277;-63
2023/05/07 05:59:12;;;;;;;;;3.00;2.00;;;;;14.74;57.44;99118.88;5980401;29;97168;-63
2023/05/07 06:02:18;;;;;;;;;7.00;6.00;;;;;14.76;57.71;99124.84;5987725;29;99932;-63
2023/05/07 06:05:21;;;;;;;;;5.00;4.50;;;;;14.66;57.09;99127.41;5972037;29;96582;-63
2023/05/07 06:08:30;;;;;;;;;6.00;5.00;;;;;14.62;57.06;99126.22;5972832;29;96595;-63
2023/05/07 06:11:34;;;;;;;;;5.00;5.00;;;;;14.60;56.79;99134.63;5972493;29;96506;-63
2023/05/07 06:14:38;;;;;;;;;5.00;5.00;;;;;14.57;57.04;99132.38;5972886;29;96285;-63
2023/05/07 06:17:43;;;;;;;;;3.60;3.60;;;;;14.55;56.94;99145.38;5974960;29;96455;-63
2023/05/07 06:20:47;;;;;;;;;4.00;4.00;;;;;14.54;56.72;99138.28;5976113;29;98615;-63
2023/05/07 06:23:59;;;;;;;;;4.00;4.00;;;;;14.48;56.68;99147.38;5989712;29;97035;-63
2023/05/07 06:27:02;;;;;;;;;2.75;2.75;;;;;14.46;56.55;99146.81;5988353;29;96681;-63
2023/05/07 06:30:09;;;;;;;;;3.00;3.00;;;;;14.44;56.29;99145.41;5995680;29;97927;-61
2023/05/07 06:33:14;;;;;;;;;6.00;5.00;;;;;14.42;56.41;99147.50;5996470;29;98565;-61
2023/05/07 06:36:17;;;;;;;;;5.00;5.00;;;;;14.35;56.32;99144.94;6027897;29;96782;-62
2023/05/07 06:39:21;;;;;;;;;4.80;4.00;;;;;14.32;56.54;99148.91;6015397;29;96573;-62
2023/05/07 06:42:27;;;;;;;;;3.80;3.20;;;;;14.33;56.58;99147.88;6020864;29;96339;-62
2023/05/07 06:45:34;;;;;;;;;4.00;4.00;;;;;14.30;56.41;99156.50;6010372;29;96269;-62
2023/05/07 06:48:41;;;;;;;;;2.40;2.40;;;;;14.30;56.75;99164.63;5990084;29;96285;-62
2023/05/07 06:51:44;;;;;;;;;4.00;3.50;;;;;14.32;56.46;99158.94;6005832;29;96258;-62
2023/05/07 06:54:48;;;;;;;;;4.00;4.00;;;;;14.37;56.26;99158.28;5992199;29;96844;-62
2023/05/07 06:57:53;;;;;;;;;4.00;3.40;;;;;14.42;55.96;99161.06;5990265;29;96675;-62
2023/05/07 07:00:58;;;;;;;;;4.00;4.00;;;;;14.43;56.14;99160.03;5972144;29;96690;-62
2023/05/07 07:04:04;;;;;;;;;3.00;3.00;;;;;14.44;55.81;99165.22;6001362;29;96846;-62
2023/05/07 07:07:08;;;;;;;;;4.80;4.80;;;;;14.55;55.97;99164.38;6006445;29;96423;-61
2023/05/07 07:10:12;;;;;;;;;3.00;2.00;;;;;14.59;55.76;99173.66;5994182;29;96109;-61
2023/05/07 07:13:15;;;;;;;;;4.00;4.00;;;;;14.60;55.42;99177.22;6003010;29;98116;-61
2023/05/07 07:16:19;;;;;;;;;4.20;4.20;;;;;14.54;55.36;99183.59;5994111;29;96313;-62
2023/05/07 07:19:25;;;;;;;;;4.60;4.60;;;;;14.54;55.08;99179.00;5996842;29;98871;-62
2023/05/07 07:22:30;;;;;;;;;6.50;5.50;;;;;14.58;55.20;99190.19;6001306;29;96280;-62
2023/05/07 07:25:34;;;;;;;;;5.00;5.00;;;;;14.65;54.74;99193.59;5997497;29;96254;-62
2023/05/07 07:28:43;;;;;;;;;6.20;6.00;;;;;14.60;54.22;99188.88;5990179;29;96665;-61
2023/05/07 07:31:50;;;;;;;;;6.00;5.25;;;;;14.55;54.21;99207.78;5982794;29;97346;-62
2023/05/07 07:34:56;;;;;;;;;7.00;7.00;;;;;14.60;54.49;99201.63;5996358;29;96300;-62
2023/05/07 07:38:01;;;;;;;;;6.00;6.00;;;;;14.61;54.18;99214.94;5996978;29;96346;-62
2023/05/07 07:41:05;;;;;;;;;5.50;5.50;;;;;14.63;53.76;99220.13;5995526;29;96802;-61
2023/05/07 07:44:12;;;;;;;;;4.00;3.00;;;;;14.54;53.75;99221.56;6011032;29;96595;-62
2023/05/07 07:47:20;;;;;;;;;4.00;4.00;;;;;14.49;53.86;99225.00;5993534;29;96606;-61
2023/05/07 07:50:26;;;;;;;;;2.00;2.00;;;;;14.45;54.13;99223.00;5989064;29;96295;-62
2023/05/07 07:53:48;;;;;;;;;3.00;2.80;;;;;14.48;54.24;99225.22;6009462;29;96951;-62
2023/05/07 07:56:53;;;;;;;;;4.00;3.00;;;;;14.51;54.06;99227.50;6010619;29;96790;-61
2023/05/07 07:59:57;;;;;;;;;3.00;3.00;;;;;14.52;53.96;99229.94;5996792;29;96484;-62
2023/05/07 08:03:00;;;;;;;;;7.25;7.25;;;;;14.57;54.21;99238.19;6009951;29;96270;-62
2023/05/07 08:06:09;;;;;;;;;7.00;7.00;;;;;14.63;54.20;99237.25;5978306;29;96844;-62
2023/05/07 08:09:13;;;;;;;;;6.60;6.60;;;;;14.65;53.38;99239.72;5992238;29;96674;-62
2023/05/07 08:12:17;;;;;;;;;7.50;7.00;;;;;14.65;53.20;99243.25;5993608;29;96280;-62
2023/05/07 08:15:20;;;;;;;;;9.00;8.00;;;;;14.60;53.56;99240.44;5998539;29;96753;-62
2023/05/07 08:18:28;;;;;;;;;6.50;6.50;;;;;14.58;53.27;99247.16;6019204;29;96395;-62
2023/05/07 08:21:35;;;;;;;;;4.00;3.50;;;;;14.60;53.42;99254.00;5992562;29;96587;-62
2023/05/07 08:24:38;;;;;;;;;6.00;6.00;;;;;14.57;53.36;99257.19;5994488;29;97320;-61
2023/05/07 08:27:42;;;;;;;;;5.00;5.00;;;;;14.47;53.64;99256.97;6008792;29;96266;-62
2023/05/07 08:30:46;;;;;;;;;6.00;5.00;;;;;14.49;53.69;99263.00;6004526;29;96491;-62
2023/05/07 08:33:50;;;;;;;;;7.00;7.00;;;;;14.48;53.74;99268.63;6008407;29;96262;-61
2023/05/07 08:36:55;;;;;;;;;5.00;4.00;;;;;14.44;53.46;99272.91;6005166;29;96926;-61
2023/05/07 08:40:00;;;;;;;;;4.80;4.80;;;;;14.48;53.30;99279.50;5972797;29;98530;-62
2023/05/07 08:43:09;;;;;;;;;6.00;6.00;;;;;14.48;53.22;99276.78;5996790;29;96387;-61
2023/05/07 08:46:19;;;;;;;;;2.00;2.00;;;;;14.48;53.48;99283.03;5984203;29;96810;-61
2023/05/07 08:49:23;;;;;;;;;4.80;4.80;;;;;14.45;53.29;99285.41;5997898;29;96367;-61
2023/05/07 08:52:29;;;;;;;;;4.00;4.00;;;;;14.39;53.00;99286.34;5997958;29;96687;-62
2023/05/07 08:55:33;;;;;;;;;6.00;5.00;;;;;14.43;52.88;99299.19;5997433;29;96474;-62
2023/05/07 08:58:37;;;;;;;;;4.00;3.80;;;;;14.36;52.78;99301.22;5981878;29;99001;-60
2023/05/07 09:01:41;;;;;;;;;6.00;5.25;;;;;14.27;53.49;99302.56;5994207;29;96653;-61
2023/05/07 09:04:45;;;;;;;;;6.40;5.40;;;;;14.24;53.22;99303.88;5974786;29;98667;-61
2023/05/07 09:07:50;;;;;;;;;5.20;5.20;;;;;14.31;53.07;99304.59;5980802;29;96899;-61
2023/05/07 09:10:57;;;;;;;;;9.40;9.40;;;;;14.36;53.08;99301.22;5996786;29;96409;-61
2023/05/07 09:14:02;;;;;;;;;6.00;6.00;;;;;14.38;53.40;99306.38;5982089;29;96408;-61
2023/05/07 09:17:11;;;;;;;;;4.00;4.00;;;;;14.40;53.38;99315.13;5978819;29;96937;-61
2023/05/07 09:20:15;;;;;;;;;5.00;4.00;;;;;14.39;53.33;99310.75;5977457;29;98341;-61
2023/05/07 09:23:21;;;;;;;;;7.00;7.00;;;;;14.40;53.56;99325.97;5980516;29;96328;-60
2023/05/07 09:26:27;;;;;;;;;10.00;9.00;;;;;14.33;53.34;99334.19;5997837;29;96825;-60
2023/05/07 09:29:35;;;;;;;;;5.00;4.20;;;;;14.30;53.19;99334.66;5977967;29;97595;-61
2023/05/07 09:32:40;;;;;;;;;9.00;7.00;;;;;14.32;52.94;99341.50;5984864;29;96954;-61
2023/05/07 09:35:52;;;;;;;;;5.20;5.20;;;;;14.33;52.99;99339.63;5994565;29;98507;-61
2023/05/07 09:39:01;;;;;;;;;6.75;6.75;;;;;14.34;52.98;99341.28;5993945;29;96322;-60
2023/05/07 09:42:06;;;;;;;;;6.40;5.80;;;;;14.36;52.88;99332.91;5992750;29;96333;-60
2023/05/07 09:45:11;;;;;;;;;6.00;5.00;;;;;14.37;52.63;99340.81;5994644;29;96351;-60
2023/05/07 09:48:19;;;;;;;;;5.00;5.00;;;;;14.40;52.60;99356.66;5980943;29;96432;-60
2023/05/07 09:51:29;;;;;;;;;5.00;4.00;;;;;14.36;52.46;99351.91;5994299;29;96283;-61
2023/05/07 09:54:38;;;;;;;;;5.00;5.00;;;;;14.33;52.85;99348.56;5989768;29;96139;-61
2023/05/07 09:57:44;;;;;;;;;7.00;7.00;;;;;14.37;52.48;99359.00;6000639;29;96767;-61
2023/05/07 10:00:49;;;;;;;;;5.00;5.00;;;;;14.38;52.49;99360.63;5984955;29;96659;-61
2023/05/07 10:03:54;;;;;;;;;7.25;7.00;;;;;14.48;52.47;99363.59;6003976;29;96385;-61
2023/05/07 10:06:59;;;;;;;;;7.00;7.00;;;;;14.51;52.27;99352.28;6003348;29;96652;-61
2023/05/07 10:10:07;;;;;;;;;7.25;7.25;;;;;14.68;52.38;99364.06;5986622;29;98969;-61
2023/05/07 10:13:14;;;;;;;;;7.00;6.60;;;;;14.68;51.65;99366.78;6002466;29;96863;-61
2023/05/07 10:16:23;;;;;;;;;5.80;5.80;;;;;14.79;51.77;99370.56;5986273;29;98519;-61
2023/05/07 10:19:28;;;;;;;;;8.40;8.40;;;;;14.77;51.98;99369.97;6017277;29;96319;-62
2023/05/07 10:22:39;;;;;;;;;6.00;6.00;;;;;14.70;52.18;99379.06;5985619;29;96951;-62
2023/05/07 10:25:45;;;;;;;;;5.00;5.00;;;;;14.66;51.47;99375.16;6001882;29;96222;-62
2023/05/07 10:29:04;;;;;;;;;6.60;6.00;;;;;14.68;51.64;99381.19;6002123;29;96389;-61
2023/05/07 10:32:21;;;;;;;;;6.00;6.00;;;;;14.68;51.42;99380.34;6000969;29;96418;-61
2023/05/07 10:35:27;;;;;;;;;4.25;4.25;;;;;14.56;51.17;99365.97;6001247;29;96310;-61
2023/05/07 10:38:30;;;;;;;;;6.00;6.00;;;;;14.68;51.24;99392.03;5994169;29;96299;-62
2023/05/07 10:41:37;;;;;;;;;6.00;6.00;;;;;14.67;51.27;99397.69;5998411;29;96377;-61
2023/05/07 10:44:42;;;;;;;;;9.00;8.00;;;;;14.69;51.35;99399.13;5966679;29;97308;-61
2023/05/07 10:48:11;;;;;;;;;7.25;7.00;;;;;14.72;51.85;99395.94;5977795;29;96302;-62
2023/05/07 10:51:21;;;;;;;;;9.00;8.60;;;;;14.76;51.32;99393.56;5962377;29;98776;-61
2023/05/07 10:54:33;;;;;;;;;5.20;4.60;;;;;14.77;51.21;99402.53;5982259;29;97275;-61
2023/05/07 10:57:45;;;;;;;;;10.00;8.40;;;;;14.76;51.42;99401.69;5958713;29;96606;-61
2023/05/07 11:00:58;;;;;;;;;8.00;8.00;;;;;14.81;51.69;99411.88;5973064;29;97604;-61
2023/05/07 11:04:14;;;;;;;;;5.00;5.00;;;;;14.77;51.42;99407.97;5958389;29;96456;-62
2023/05/07 11:07:28;;;;;;;;;8.00;8.00;;;;;14.62;51.28;99400.28;5957214;29;97534;-61
2023/05/07 11:10:54;;;;;;;;;7.00;7.00;;;;;14.64;51.50;99409.03;5973940;29;96362;-61
2023/05/07 11:14:10;;;;;;;;;9.00;7.00;;;;;14.69;51.13;99409.16;5992686;29;96422;-62
2023/05/07 11:17:23;;;;;;;;;6.00;5.40;;;;;14.75;51.10;99408.22;6012716;29;96333;-62
2023/05/07 11:20:56;;;;;;;;;8.00;8.00;;;;;14.67;51.17;99403.94;5996739;29;96243;-62
2023/05/07 11:24:07;;;;;;;;;9.00;8.00;;;;;14.73;50.91;99415.75;5995795;29;96437;-62
2023/05/07 11:27:37;;;;;;;;;10.25;10.00;;;;;14.61;51.07;99407.59;5979944;29;96126;-62
2023/05/07 11:30:43;;;;;;;;;9.00;8.00;;;;;14.69;50.85;99409.97;6002168;29;96460;-61
2023/05/07 11:33:51;;;;;;;;;8.00;7.20;;;;;14.54;50.32;99398.75;6020296;29;96350;-62
2023/05/07 11:36:57;;;;;;;;;7.00;7.00;;;;;14.72;50.60;99416.81;6019924;29;96494;-62
2023/05/07 11:40:13;;;;;;;;;4.00;4.00;;;;;14.69;50.19;99423.56;6019660;29;96388;-61
2023/05/07 11:43:17;;;;;;;;;6.00;5.00;;;;;14.79;50.44;99430.28;6004463;29;96259;-61
2023/05/07 11:46:22;;;;;;;;;6.00;6.00;;;;;14.82;50.13;99427.09;5976644;29;96281;-62
2023/05/07 11:49:29;;;;;;;;;7.00;7.00;;;;;14.84;50.40;99430.41;5980332;29;96822;-61
2023/05/07 11:52:33;;;;;;;;;6.60;6.00;;;;;14.82;50.19;99435.22;5977904;29;96439;-60
2023/05/07 11:55:36;;;;;;;;;8.40;8.00;;;;;14.82;50.51;99435.22;5976498;29;96552;-60
2023/05/07 11:58:41;;;;;;;;;6.40;6.40;;;;;14.78;50.37;99436.75;5974880;29;96601;-60
2023/05/07 12:01:48;;;;;;;;;5.50;5.50;;;;;14.71;49.94;99445.00;5974816;29;96334;-60
2023/05/07 12:04:51;;;;;;;;;5.00;5.00;;;;;14.77;49.91;99454.09;5975433;29;96289;-60
2023/05/07 12:07:57;;;;;;;;;6.60;6.60;;;;;14.72;49.56;99455.63;5974746;29;98670;-59
2023/05/07 12:11:00;;;;;;;;;7.40;7.40;;;;;14.66;50.04;99450.34;5991080;29;96826;-59
2023/05/07 12:14:04;;;;;;;;;7.00;6.00;;;;;14.66;50.04;99444.91;5975207;29;96955;-60
2023/05/07 12:17:15;;;;;;;;;7.40;7.40;;;;;14.76;50.59;99447.84;5973885;29;96983;-59
2023/05/07 12:20:19;;;;;;;;;7.40;7.40;;;;;14.65;49.74;99449.50;5974073;29;98415;-60
2023/05/07 12:23:23;;;;;;;;;9.00;8.40;;;;;14.61;49.50;99442.06;5975711;29;96850;-60
2023/05/07 12:26:27;;;;;;;;;7.00;6.00;;;;;14.67;49.58;99458.22;5973787;29;99020;-60
2023/05/07 12:29:30;;;;;;;;;5.00;5.00;;;;;14.65;49.61;99464.97;5959089;29;99023;-60
2023/05/07 12:32:37;;;;;;;;;7.00;7.00;;;;;14.62;49.91;99465.41;5976069;29;96381;-59
2023/05/07 12:35:42;;;;;;;;;7.75;6.25;;;;;14.65;49.61;99468.50;5976038;29;96473;-59
2023/05/07 12:38:45;;;;;;;;;6.25;6.00;;;;;14.64;49.39;99471.44;5974566;29;96716;-59
2023/05/07 12:41:55;;;;;;;;;6.00;5.80;;;;;14.60;49.51;99462.13;5976135;29;96570;-59
2023/05/07 12:44:59;;;;;;;;;9.00;8.80;;;;;14.62;49.67;99468.13;5974882;29;96580;-59
2023/05/07 12:48:04;;;;;;;;;7.60;7.60;;;;;14.41;49.28;99461.38;5973960;29;98546;-59
2023/05/07 12:51:09;;;;;;;;;8.50;7.50;;;;;14.47;50.08;99467.75;5976061;29;96381;-59
2023/05/07 12:54:13;;;;;;;;;9.00;8.50;;;;;14.41;49.90;99471.41;5973457;29;96689;-59
2023/05/07 12:57:20;;;;;;;;;9.50;9.50;;;;;14.42;50.12;99473.88;5988526;29;96519;-59
2023/05/07 13:00:37;;;;;;;;;8.00;8.00;;;;;14.19;50.35;99471.06;5989690;29;96416;-59
2023/05/07 13:03:42;;;;;;;;;5.60;5.60;;;;;14.20;50.12;99475.44;5975160;29;96392;-59
2023/05/07 13:06:45;;;;;;;;;7.00;7.00;;;;;14.28;50.32;99475.94;5974270;29;96488;-59
2023/05/07 13:09:48;;;;;;;;;8.00;8.00;;;;;14.34;50.19;99482.31;5975161;29;96526;-59
2023/05/07 13:12:52;;;;;;;;;6.00;6.00;;;;;14.43;49.58;99485.56;5989591;29;96938;-60
2023/05/07 13:15:56;;;;;;;;;7.00;7.00;;;;;14.41;49.70;99480.38;5973936;29;96906;-59
2023/05/07 13:19:01;;;;;;;;;7.00;7.00;;;;;14.32;49.84;99484.41;5974893;29;96580;-59
2023/05/07 13:22:04;;;;;;;;;8.00;8.00;;;;;14.21;50.16;99477.09;5988873;29;98499;-59
2023/05/07 13:25:08;;;;;;;;;7.40;7.40;;;;;13.91;50.28;99482.50;5974871;29;96532;-59
2023/05/07 13:28:12;;;;;;;;;10.00;9.40;;;;;13.92;50.59;99484.19;5994054;29;96523;-59
2023/05/07 13:31:15;;;;;;;;;10.00;10.00;;;;;13.93;50.00;99485.00;5996999;29;96922;-59
2023/05/07 13:34:20;;;;;;;;;10.00;10.00;;;;;14.07;50.74;99486.47;5997340;29;96405;-59
2023/05/07 13:37:23;;;;;;;;;11.00;10.00;;;;;14.04;50.04;99485.03;5996497;29;96899;-59
2023/05/07 13:40:27;;;;;;;;;10.00;10.00;;;;;14.11;50.14;99487.66;5984676;29;96270;-59
2023/05/07 13:43:31;;;;;;;;;8.00;8.00;;;;;14.11;50.14;99491.22;6011609;29;96496;-59
2023/05/07 13:46:35;;;;;;;;;8.60;8.00;;;;;14.17;50.17;99475.91;5996601;29;96863;-59
2023/05/07 13:49:39;;;;;;;;;9.40;9.40;;;;;14.23;49.66;99491.22;5983272;29;96573;-59
2023/05/07 13:52:45;;;;;;;;;12.40;12.00;;;;;14.18;50.13;99474.81;5997134;29;96921;-59
2023/05/07 13:55:49;;;;;;;;;7.60;7.60;;;;;14.28;50.02;99486.78;5997684;29;96401;-59
2023/05/07 13:58:52;;;;;;;;;8.00;8.00;;;;;14.38;49.85;99491.69;5996106;29;96540;-59
2023/05/07 14:02:02;;;;;;;;;10.00;10.00;;;;;14.31;49.26;99472.78;5997055;29;96702;-59
2023/05/07 14:05:09;;;;;;;;;11.00;10.00;;;;;14.29;48.77;99491.16;5996085;29;96353;-59
2023/05/07 14:08:13;;;;;;;;;10.00;10.00;;;;;14.23;49.08;99493.94;5996846;29;96951;-60
2023/05/07 14:11:17;;;;;;;;;11.25;10.25;;;;;13.96;49.20;99496.22;5979812;29;98427;-60
2023/05/07 14:14:20;;;;;;;;;8.20;8.00;;;;;13.83;49.59;99502.63;5995038;29;96299;-60
2023/05/07 14:17:26;;;;;;;;;11.00;10.40;;;;;13.66;49.60;99501.59;5996902;29;96214;-59
2023/05/07 14:20:31;;;;;;;;;12.00;11.50;;;;;13.59;50.25;99511.66;5973323;29;96398;-59
2023/05/07 14:23:34;;;;;;;;;9.80;8.80;;;;;13.75;50.18;99505.63;5996560;29;96412;-59
2023/05/07 14:26:37;;;;;;;;;10.00;9.00;;;;;13.78;50.15;99499.75;5980059;29;98760;-60
2023/05/07 14:29:40;;;;;;;;;12.00;12.00;;;;;13.92;49.64;99518.59;5986835;29;96451;-60